createdAt,value
2018-02-04T00:00:32.478Z,3.82
2018-02-04T00:02:59.941Z,3.79
2018-02-04T00:05:27.439Z,3.81
2018-02-04T00:07:54.972Z,3.78
2018-02-04T00:10:22.469Z,3.77
2018-02-04T00:12:50.000Z,3.79
2018-02-04T00:15:17.518Z,3.77
2018-02-04T00:17:45.051Z,3.75
2018-02-04T00:20:12.534Z,3.83
2018-02-04T00:22:42.056Z,3.81
2018-02-04T00:25:09.519Z,3.87
2018-02-04T00:27:37.011Z,3.83
2018-02-04T00:30:04.563Z,3.80
2018-02-04T00:32:32.037Z,3.75
2018-02-04T00:34:59.521Z,3.72
2018-02-04T00:37:27.090Z,3.70
2018-02-04T00:39:54.606Z,3.67
2018-02-04T00:42:22.103Z,3.68
2018-02-04T00:44:49.618Z,3.77
2018-02-04T00:47:17.120Z,3.67
2018-02-04T00:49:44.657Z,3.68
2018-02-04T00:52:12.177Z,3.65
2018-02-04T00:54:39.836Z,3.62
2018-02-04T00:57:07.456Z,3.64
2018-02-04T00:59:34.974Z,3.64
2018-02-04T01:02:02.489Z,3.56
2018-02-04T01:04:30.066Z,3.59
2018-02-04T01:06:57.555Z,3.57
2018-02-04T01:09:25.058Z,3.54
2018-02-04T01:11:52.572Z,3.54
2018-02-04T01:14:20.049Z,3.55
2018-02-04T01:16:47.514Z,3.59
2018-02-04T01:19:15.146Z,3.60
2018-02-04T01:21:42.643Z,3.50
2018-02-04T01:24:10.183Z,3.51
2018-02-04T01:26:37.671Z,3.51
2018-02-04T01:29:05.188Z,3.42
2018-02-04T01:31:32.688Z,3.44
2018-02-04T01:34:00.197Z,3.44
2018-02-04T01:36:27.687Z,3.46
2018-02-04T01:38:55.262Z,3.47
2018-02-04T01:41:22.763Z,3.48
2018-02-04T01:43:50.226Z,3.50
2018-02-04T01:46:17.731Z,3.37
2018-02-04T01:48:45.244Z,3.52
2018-02-04T01:51:12.714Z,3.42
2018-02-04T01:53:40.191Z,3.45
2018-02-04T01:56:07.705Z,3.29
2018-02-04T01:58:35.199Z,3.21
2018-02-04T02:01:02.682Z,3.22
2018-02-04T02:03:30.213Z,3.17
2018-02-04T02:05:57.665Z,3.12
2018-02-04T02:08:25.131Z,3.11
2018-02-04T02:10:52.689Z,2.98
2018-02-04T02:13:20.166Z,2.99
2018-02-04T02:15:47.656Z,3.04
2018-02-04T02:18:15.160Z,3.09
2018-02-04T02:20:42.648Z,2.98
2018-02-04T02:23:10.133Z,2.99
2018-02-04T02:25:37.593Z,3.01
2018-02-04T02:28:05.087Z,2.88
2018-02-04T02:30:32.608Z,2.91
2018-02-04T02:33:00.130Z,2.86
2018-02-04T02:35:27.612Z,2.88
2018-02-04T02:37:55.120Z,2.88
2018-02-04T02:40:22.593Z,2.88
2018-02-04T02:42:50.077Z,2.89
2018-02-04T02:45:17.603Z,2.90
2018-02-04T02:47:45.073Z,2.76
2018-02-04T02:50:12.539Z,2.79
2018-02-04T02:52:40.009Z,2.76
2018-02-04T02:55:07.466Z,2.76
2018-02-04T02:57:34.953Z,2.79
2018-02-04T03:00:02.429Z,2.72
2018-02-04T03:02:29.898Z,2.70
2018-02-04T03:04:57.445Z,2.71
2018-02-04T03:07:24.903Z,2.63
2018-02-04T03:09:52.354Z,2.62
2018-02-04T03:12:19.850Z,2.65
2018-02-04T03:14:47.321Z,2.65
2018-02-04T03:17:14.778Z,2.72
2018-02-04T03:19:42.247Z,2.63
2018-02-04T03:22:09.708Z,2.63
2018-02-04T03:24:37.191Z,2.67
2018-02-04T03:27:04.671Z,2.63
2018-02-04T03:29:32.160Z,2.65
2018-02-04T03:31:59.633Z,2.73
2018-02-04T03:34:27.096Z,2.76
2018-02-04T03:36:54.586Z,2.73
2018-02-04T03:39:22.061Z,2.73
2018-02-04T03:41:49.555Z,2.75
2018-02-04T03:44:17.016Z,2.65
2018-02-04T03:46:44.511Z,2.72
2018-02-04T03:49:11.950Z,2.71
2018-02-04T03:51:39.414Z,2.66
2018-02-04T03:54:06.970Z,2.65
2018-02-04T03:56:34.422Z,2.71
2018-02-04T03:59:01.888Z,2.70
2018-02-04T04:01:29.391Z,2.67
2018-02-04T04:03:56.875Z,2.66
2018-02-04T04:06:24.363Z,2.67
2018-02-04T04:08:51.823Z,2.69
2018-02-04T04:11:19.333Z,2.63
2018-02-04T04:13:47.226Z,2.71
2018-02-04T04:16:14.692Z,2.65
2018-02-04T04:18:42.141Z,2.68
2018-02-04T04:21:09.607Z,2.67
2018-02-04T04:23:37.154Z,2.62
2018-02-04T04:26:04.748Z,2.74
2018-02-04T04:28:32.208Z,2.62
2018-02-04T04:30:59.719Z,2.56
2018-02-04T04:33:27.208Z,2.64
2018-02-04T04:35:54.656Z,2.61
2018-02-04T04:38:22.146Z,2.62
2018-02-04T04:40:49.598Z,2.74
2018-02-04T04:43:17.049Z,2.82
2018-02-04T04:45:44.533Z,2.80
2018-02-04T04:48:12.027Z,2.85
2018-02-04T04:50:39.487Z,2.87
2018-02-04T04:53:07.584Z,2.87
2018-02-04T04:55:35.031Z,2.86
2018-02-04T04:58:02.498Z,2.89
2018-02-04T05:00:29.952Z,2.94
2018-02-04T05:02:57.422Z,2.90
2018-02-04T05:05:24.886Z,2.92
2018-02-04T05:07:52.362Z,2.82
2018-02-04T05:10:20.667Z,2.73
2018-02-04T05:12:48.153Z,2.91
2018-02-04T05:15:15.594Z,2.76
2018-02-04T05:17:43.088Z,2.85
2018-02-04T05:20:10.570Z,2.89
2018-02-04T05:22:38.026Z,2.84
2018-02-04T05:25:05.517Z,2.88
2018-02-04T05:27:33.029Z,2.82
2018-02-04T05:30:00.485Z,2.97
2018-02-04T05:32:27.956Z,2.93
2018-02-04T05:34:55.443Z,3.04
2018-02-04T05:37:22.916Z,3.00
2018-02-04T05:39:50.390Z,3.00
2018-02-04T05:42:17.848Z,2.96
2018-02-04T05:47:19.010Z,2.97
2018-02-04T05:49:46.481Z,3.10
2018-02-04T05:52:13.951Z,2.98
2018-02-04T05:54:41.447Z,2.96
2018-02-04T05:57:08.914Z,2.93
2018-02-04T05:59:36.368Z,2.95
2018-02-04T06:02:03.841Z,2.96
2018-02-04T06:04:31.287Z,2.94
2018-02-04T06:06:58.747Z,3.01
2018-02-04T06:09:26.247Z,2.96
2018-02-04T06:11:53.698Z,2.93
2018-02-04T06:14:21.154Z,3.08
2018-02-04T06:16:48.623Z,3.01
2018-02-04T06:19:16.066Z,2.97
2018-02-04T06:21:43.730Z,3.00
2018-02-04T06:24:11.213Z,3.01
2018-02-04T06:26:38.707Z,3.05
2018-02-04T06:29:06.187Z,2.98
2018-02-04T06:31:33.645Z,3.03
2018-02-04T06:34:01.168Z,3.02
2018-02-04T06:36:28.626Z,3.06
2018-02-04T06:38:56.102Z,3.05
2018-02-04T06:41:23.554Z,3.06
2018-02-04T06:43:51.016Z,3.08
2018-02-04T06:46:18.485Z,3.05
2018-02-04T06:48:45.958Z,3.04
2018-02-04T06:51:13.450Z,3.05
2018-02-04T06:53:40.914Z,3.10
2018-02-04T06:56:08.382Z,3.12
2018-02-04T06:58:35.873Z,3.14
2018-02-04T07:01:03.346Z,3.14
2018-02-04T07:03:30.813Z,3.22
2018-02-04T07:05:58.272Z,3.14
2018-02-04T07:08:25.732Z,3.10
2018-02-04T07:10:53.246Z,3.20
2018-02-04T07:13:20.709Z,3.19
2018-02-04T07:15:48.160Z,3.23
2018-02-04T07:18:15.624Z,3.25
2018-02-04T07:20:43.090Z,3.28
2018-02-04T07:23:10.567Z,3.34
2018-02-04T07:25:38.075Z,3.37
2018-02-04T07:28:05.576Z,3.42
2018-02-04T07:30:33.042Z,3.49
2018-02-04T07:33:00.503Z,3.45
2018-02-04T07:35:28.016Z,3.50
2018-02-04T07:37:55.496Z,3.40
2018-02-04T07:40:22.997Z,3.41
2018-02-04T07:42:50.464Z,3.45
2018-02-04T07:45:17.952Z,3.46
2018-02-04T07:47:45.426Z,3.50
2018-02-04T07:50:12.928Z,3.49
2018-02-04T07:52:40.396Z,3.44
2018-02-04T07:55:07.872Z,3.42
2018-02-04T07:57:35.381Z,3.27
2018-02-04T08:00:02.902Z,3.35
2018-02-04T08:02:30.368Z,3.38
2018-02-04T08:04:57.821Z,3.33
2018-02-04T08:07:25.289Z,3.41
2018-02-04T08:09:52.760Z,3.41
2018-02-04T08:12:20.214Z,3.40
2018-02-04T08:14:47.721Z,3.32
2018-02-04T08:17:15.200Z,3.57
2018-02-04T08:19:42.644Z,3.63
2018-02-04T08:22:10.101Z,3.80
2018-02-04T08:24:37.653Z,3.87
2018-02-04T08:27:05.089Z,4.00
2018-02-04T08:29:32.537Z,4.16
2018-02-04T08:32:00.016Z,4.25
2018-02-04T08:34:27.518Z,4.25
2018-02-04T08:36:54.987Z,4.51
2018-02-04T08:39:22.478Z,4.62
2018-02-04T08:41:49.951Z,4.64
2018-02-04T08:44:17.421Z,4.53
2018-02-04T08:46:44.919Z,4.59
2018-02-04T08:49:12.378Z,4.49
2018-02-04T08:51:39.840Z,4.73
2018-02-04T08:54:07.392Z,4.93
2018-02-04T08:56:34.846Z,5.10
2018-02-04T08:59:02.328Z,5.07
2018-02-04T09:01:29.793Z,5.08
2018-02-04T09:03:57.253Z,5.01
2018-02-04T09:06:24.755Z,4.86
2018-02-04T09:08:52.237Z,4.98
2018-02-04T09:11:19.698Z,5.17
2018-02-04T09:13:47.278Z,5.23
2018-02-04T09:16:14.790Z,5.34
2018-02-04T09:18:42.262Z,5.34
2018-02-04T09:21:09.802Z,5.24
2018-02-04T09:23:37.274Z,5.58
2018-02-04T09:26:04.784Z,5.70
2018-02-04T09:28:32.371Z,5.67
2018-02-04T09:30:59.819Z,5.06
2018-02-04T09:33:27.314Z,4.96
2018-02-04T09:35:54.763Z,4.84
2018-02-04T09:38:22.199Z,4.98
2018-02-04T09:40:49.711Z,5.02
2018-02-04T09:43:17.254Z,5.09
2018-02-04T09:45:44.707Z,5.20
2018-02-04T09:48:12.181Z,4.95
2018-02-04T09:50:39.702Z,4.62
2018-02-04T09:53:07.187Z,4.66
2018-02-04T09:55:34.659Z,4.60
2018-02-04T09:58:02.115Z,4.64
2018-02-04T10:00:29.592Z,4.66
2018-02-04T10:02:57.067Z,4.42
2018-02-04T10:05:24.545Z,4.35
2018-02-04T10:07:52.071Z,4.59
2018-02-04T10:10:19.534Z,4.73
2018-02-04T10:12:46.998Z,4.94
2018-02-04T10:15:14.471Z,4.91
2018-02-04T10:17:41.997Z,5.10
2018-02-04T10:20:09.666Z,5.22
2018-02-04T10:22:37.136Z,5.49
2018-02-04T10:25:04.587Z,5.66
2018-02-04T10:27:32.048Z,5.32
2018-02-04T10:29:59.567Z,5.20
2018-02-04T10:32:27.074Z,5.46
2018-02-04T10:34:54.563Z,5.82
2018-02-04T10:37:22.019Z,5.66
2018-02-04T10:39:49.524Z,5.71
2018-02-04T10:42:17.103Z,5.73
2018-02-04T10:44:44.575Z,5.67
2018-02-04T10:47:12.004Z,5.85
2018-02-04T10:49:39.471Z,5.85
2018-02-04T10:52:06.935Z,5.98
2018-02-04T10:54:34.415Z,5.98
2018-02-04T10:57:01.940Z,5.83
2018-02-04T10:59:29.437Z,5.98
2018-02-04T11:01:56.942Z,5.89
2018-02-04T11:04:24.431Z,5.62
2018-02-04T11:06:51.882Z,5.61
2018-02-04T11:09:19.346Z,5.53
2018-02-04T11:11:46.829Z,5.49
2018-02-04T11:14:14.296Z,5.45
2018-02-04T11:16:41.777Z,5.24
2018-02-04T11:19:09.248Z,5.12
2018-02-04T11:21:36.699Z,5.10
2018-02-04T11:24:04.170Z,4.91
2018-02-04T11:26:31.637Z,5.00
2018-02-04T11:28:59.096Z,5.16
2018-02-04T11:31:26.626Z,5.36
2018-02-04T11:33:54.129Z,5.52
2018-02-04T11:36:21.606Z,5.37
2018-02-04T11:38:49.082Z,5.23
2018-02-04T11:41:16.744Z,5.24
2018-02-04T11:43:44.230Z,5.34
2018-02-04T11:46:11.709Z,5.34
2018-02-04T11:48:39.170Z,5.33
2018-02-04T11:51:06.644Z,5.19
2018-02-04T11:53:34.095Z,5.39
2018-02-04T11:56:01.559Z,5.39
2018-02-04T11:58:29.102Z,5.81
2018-02-04T12:00:56.627Z,5.75
2018-02-04T12:03:24.107Z,5.68
2018-02-04T12:05:51.575Z,5.92
2018-02-04T12:08:19.060Z,6.04
2018-02-04T12:10:46.569Z,6.13
2018-02-04T12:13:14.010Z,6.34
2018-02-04T12:15:41.460Z,6.66
2018-02-04T12:18:08.928Z,7.01
2018-02-04T12:20:36.371Z,7.35
2018-02-04T12:23:03.929Z,7.30
2018-02-04T12:25:31.388Z,7.35
2018-02-04T12:27:59.008Z,7.26
2018-02-04T12:30:26.480Z,6.93
2018-02-04T12:32:53.932Z,6.76
2018-02-04T12:35:21.454Z,6.64
2018-02-04T12:37:48.902Z,6.59
2018-02-04T12:40:16.384Z,6.43
2018-02-04T12:42:43.843Z,6.50
2018-02-04T12:45:11.288Z,6.52
2018-02-04T12:47:38.827Z,6.43
2018-02-04T12:50:06.283Z,5.88
2018-02-04T12:52:33.753Z,5.43
2018-02-04T12:55:01.271Z,5.04
2018-02-04T12:57:28.744Z,4.98
2018-02-04T12:59:56.210Z,4.92
2018-02-04T13:02:23.680Z,4.95
2018-02-04T13:04:51.148Z,4.96
2018-02-04T13:07:18.589Z,4.90
2018-02-04T13:09:46.071Z,4.93
2018-02-04T13:12:13.557Z,5.18
2018-02-04T13:14:41.036Z,5.34
2018-02-04T13:17:08.541Z,5.41
2018-02-04T13:19:35.990Z,5.58
2018-02-04T13:22:03.486Z,5.58
2018-02-04T13:24:30.967Z,5.57
2018-02-04T13:26:58.498Z,5.30
2018-02-04T13:29:26.074Z,5.21
2018-02-04T13:31:53.631Z,5.13
2018-02-04T13:34:21.147Z,5.06
2018-02-04T13:36:48.691Z,5.14
2018-02-04T13:39:16.331Z,5.15
2018-02-04T13:41:43.868Z,5.38
2018-02-04T13:44:11.409Z,5.81
2018-02-04T13:46:38.865Z,5.88
2018-02-04T13:49:06.316Z,6.01
2018-02-04T13:51:33.775Z,5.86
2018-02-04T13:54:01.250Z,5.94
2018-02-04T13:56:28.719Z,5.90
2018-02-04T13:58:56.150Z,5.92
2018-02-04T14:01:23.587Z,5.92
2018-02-04T14:03:51.174Z,5.99
2018-02-04T14:06:18.610Z,6.00
2018-02-04T14:08:46.067Z,6.10
2018-02-04T14:11:13.535Z,6.19
2018-02-04T14:13:41.079Z,6.01
2018-02-04T14:16:08.546Z,6.11
2018-02-04T14:18:36.009Z,5.87
2018-02-04T14:21:03.526Z,5.42
2018-02-04T14:23:30.967Z,5.36
2018-02-04T14:25:58.658Z,5.24
2018-02-04T14:28:26.139Z,4.90
2018-02-04T14:30:53.624Z,4.54
2018-02-04T14:33:21.095Z,4.34
2018-02-04T14:35:48.589Z,4.14
2018-02-04T14:38:16.070Z,4.03
2018-02-04T14:40:43.537Z,4.08
2018-02-04T14:43:11.013Z,4.03
2018-02-04T14:45:38.493Z,4.02
2018-02-04T14:48:06.079Z,4.03
2018-02-04T14:50:33.535Z,4.09
2018-02-04T14:53:01.026Z,4.10
2018-02-04T14:55:28.539Z,4.19
2018-02-04T14:57:56.038Z,4.31
2018-02-04T15:00:23.532Z,4.43
2018-02-04T15:02:50.975Z,4.22
2018-02-04T15:05:18.435Z,4.39
2018-02-04T15:07:45.900Z,4.33
2018-02-04T15:10:13.371Z,4.18
2018-02-04T15:12:40.817Z,4.88
2018-02-04T15:15:08.268Z,5.16
2018-02-04T15:17:35.722Z,5.37
2018-02-04T15:20:03.265Z,5.75
2018-02-04T15:22:30.806Z,6.18
2018-02-04T15:24:58.250Z,6.56
2018-02-04T15:27:25.711Z,6.52
2018-02-04T15:29:53.180Z,6.13
2018-02-04T15:32:20.640Z,6.24
2018-02-04T15:34:48.136Z,6.33
2018-02-04T15:37:15.606Z,6.16
2018-02-04T15:39:43.064Z,5.83
2018-02-04T15:42:10.577Z,5.45
2018-02-04T15:44:40.111Z,5.14
2018-02-04T15:47:07.707Z,4.68
2018-02-04T15:49:35.158Z,4.41
2018-02-04T15:52:02.712Z,4.34
2018-02-04T15:54:30.162Z,3.95
2018-02-04T15:56:57.626Z,3.80
2018-02-04T15:59:25.098Z,3.74
2018-02-04T16:01:52.576Z,3.60
2018-02-04T16:04:20.031Z,3.47
2018-02-04T16:06:47.491Z,3.38
2018-02-04T16:09:14.986Z,3.26
2018-02-04T16:11:42.517Z,3.22
2018-02-04T16:14:09.998Z,3.16
2018-02-04T16:16:37.510Z,3.13
2018-02-04T16:19:05.017Z,3.01
2018-02-04T16:21:32.503Z,3.07
2018-02-04T16:24:00.107Z,3.03
2018-02-04T16:26:27.596Z,3.02
2018-02-04T16:28:55.058Z,3.01
2018-02-04T16:31:22.536Z,3.00
2018-02-04T16:33:50.000Z,3.03
2018-02-04T16:36:17.503Z,2.85
2018-02-04T16:38:44.989Z,2.89
2018-02-04T16:41:12.449Z,2.79
2018-02-04T16:43:39.979Z,2.78
2018-02-04T16:46:07.484Z,2.75
2018-02-04T16:48:34.970Z,2.72
2018-02-04T16:51:02.504Z,2.63
2018-02-04T16:53:29.999Z,2.60
2018-02-04T16:55:57.484Z,2.63
2018-02-04T16:58:25.027Z,2.64
2018-02-04T17:00:52.680Z,2.49
2018-02-04T17:03:20.137Z,2.49
2018-02-04T17:05:47.636Z,2.52
2018-02-04T17:08:15.156Z,2.56
2018-02-04T17:10:42.640Z,2.45
2018-02-04T17:13:10.138Z,2.62
2018-02-04T17:15:37.610Z,2.54
2018-02-04T17:18:05.110Z,2.53
2018-02-04T17:20:32.588Z,2.52
2018-02-04T17:23:00.079Z,2.49
2018-02-04T17:25:27.554Z,2.63
2018-02-04T17:27:55.036Z,2.66
2018-02-04T17:30:22.562Z,2.55
2018-02-04T17:32:50.067Z,2.61
2018-02-04T17:35:17.578Z,2.53
2018-02-04T17:37:45.061Z,2.53
2018-02-04T17:40:12.546Z,2.42
2018-02-04T17:42:40.033Z,2.52
2018-02-04T17:45:07.556Z,2.40
2018-02-04T17:47:35.070Z,2.58
2018-02-04T17:50:03.551Z,2.54
2018-02-04T17:52:31.102Z,2.47
2018-02-04T17:54:58.636Z,2.48
2018-02-04T17:57:26.111Z,2.28
2018-02-04T17:59:53.662Z,2.20
2018-02-04T18:02:21.143Z,2.21
2018-02-04T18:04:48.620Z,2.16
2018-02-04T18:07:16.211Z,2.24
2018-02-04T18:09:43.720Z,2.25
2018-02-04T18:12:11.249Z,2.19
2018-02-04T18:14:38.736Z,2.22
2018-02-04T18:17:06.255Z,2.17
2018-02-04T18:19:33.732Z,2.18
2018-02-04T18:22:01.297Z,2.31
2018-02-04T18:24:28.831Z,2.19
2018-02-04T18:26:56.347Z,2.21
2018-02-04T18:29:23.803Z,2.07
2018-02-04T18:31:51.280Z,1.99
2018-02-04T18:34:18.772Z,2.06
2018-02-04T18:36:46.267Z,1.98
2018-02-04T18:39:13.777Z,1.91
2018-02-04T18:41:41.266Z,2.01
2018-02-04T18:44:08.746Z,2.03
2018-02-04T18:46:36.297Z,2.07
2018-02-04T18:49:04.569Z,2.00
2018-02-04T18:51:32.388Z,1.94
2018-02-04T18:53:59.879Z,1.90
2018-02-04T18:56:27.510Z,1.83
2018-02-04T18:58:55.071Z,2.08
2018-02-04T19:01:22.568Z,2.08
2018-02-04T19:03:50.044Z,2.13
2018-02-04T19:06:17.501Z,2.02
2018-02-04T19:08:45.058Z,2.08
2018-02-04T19:11:12.530Z,2.14
2018-02-04T19:13:40.047Z,2.18
2018-02-04T19:16:07.568Z,2.20
2018-02-04T19:18:35.130Z,2.29
2018-02-04T19:21:03.126Z,2.24
2018-02-04T19:23:30.624Z,2.18
2018-02-04T19:25:58.105Z,2.25
2018-02-04T19:28:25.597Z,2.37
2018-02-04T19:30:53.088Z,2.39
2018-02-04T19:33:20.610Z,2.49
2018-02-04T19:35:48.109Z,2.40
2018-02-04T19:38:15.608Z,2.33
2018-02-04T19:40:43.778Z,2.37
2018-02-04T19:43:11.275Z,2.48
2018-02-04T19:45:38.918Z,2.43
2018-02-04T19:48:06.479Z,2.32
2018-02-04T19:50:34.010Z,2.32
2018-02-04T19:53:01.505Z,2.29
2018-02-04T19:55:29.034Z,2.24
2018-02-04T19:57:56.560Z,2.30
2018-02-04T20:00:24.154Z,2.26
2018-02-04T20:02:51.854Z,2.26
2018-02-04T20:05:19.573Z,2.27
2018-02-04T20:07:47.323Z,2.36
2018-02-04T20:10:15.060Z,2.38
2018-02-04T20:12:42.581Z,2.28
2018-02-04T20:15:10.091Z,2.24
2018-02-04T20:17:37.635Z,2.30
2018-02-04T20:20:05.184Z,2.20
2018-02-04T20:22:32.818Z,2.24
2018-02-04T20:25:00.387Z,2.20
2018-02-04T20:27:28.093Z,2.30
2018-02-04T20:29:55.588Z,1.99
2018-02-04T20:32:35.137Z,2.10
2018-02-04T20:35:02.812Z,1.99
2018-02-04T20:37:30.535Z,1.95
2018-02-04T20:39:58.281Z,2.02
2018-02-04T20:42:25.778Z,1.98
2018-02-04T20:44:53.259Z,2.09
2018-02-04T20:47:20.908Z,2.07
2018-02-04T20:49:48.587Z,1.94
2018-02-04T20:52:16.229Z,2.09
2018-02-04T20:54:43.768Z,2.08
2018-02-04T20:57:11.302Z,2.25
2018-02-04T20:59:38.772Z,2.19
2018-02-04T21:02:06.245Z,2.23
2018-02-04T21:04:33.774Z,2.10
2018-02-04T21:07:01.275Z,2.02
2018-02-04T21:09:28.839Z,2.02
2018-02-04T21:11:56.373Z,2.07
2018-02-04T21:14:23.875Z,2.18
2018-02-04T21:16:51.459Z,2.09
2018-02-04T21:19:18.977Z,2.13
2018-02-04T21:21:46.466Z,2.06
2018-02-04T21:24:13.967Z,1.91
2018-02-04T21:26:41.557Z,1.74
2018-02-04T21:29:09.029Z,1.86
2018-02-04T21:31:36.519Z,1.88
2018-02-04T21:34:04.073Z,2.02
2018-02-04T21:36:31.630Z,2.02
2018-02-04T21:38:59.360Z,1.86
2018-02-04T21:41:26.840Z,1.76
2018-02-04T21:43:54.329Z,1.82
2018-02-04T21:46:21.831Z,2.00
2018-02-04T21:48:49.377Z,1.88
2018-02-04T21:51:17.089Z,1.67
2018-02-04T21:53:44.625Z,1.77
2018-02-04T21:56:12.091Z,1.77
2018-02-04T21:58:39.618Z,1.73
2018-02-04T22:01:07.094Z,1.61
2018-02-04T22:03:34.635Z,1.86
2018-02-04T22:06:02.130Z,1.87
2018-02-04T22:08:29.589Z,1.86
2018-02-04T22:10:57.141Z,1.87
2018-02-04T22:13:24.642Z,1.65
2018-02-04T22:15:52.157Z,1.59
2018-02-04T22:18:19.683Z,1.57
2018-02-04T22:20:47.209Z,1.65
2018-02-04T22:23:14.753Z,1.63
2018-02-04T22:25:42.242Z,1.48
2018-02-04T22:28:09.739Z,1.55
2018-02-04T22:30:37.232Z,1.68
2018-02-04T22:33:04.754Z,1.62
2018-02-04T22:35:32.280Z,1.50
2018-02-04T22:37:59.812Z,1.57
2018-02-04T22:40:27.353Z,1.56
2018-02-04T22:42:54.867Z,1.58
2018-02-04T22:45:22.355Z,1.52
2018-02-04T22:47:49.868Z,1.53
2018-02-04T22:50:17.399Z,1.60
2018-02-04T22:52:45.050Z,1.60
2018-02-04T22:55:12.787Z,1.50
2018-02-04T22:57:40.362Z,1.55
2018-02-04T23:00:07.852Z,1.56
2018-02-04T23:02:35.331Z,1.52
2018-02-04T23:05:02.882Z,1.49
2018-02-04T23:07:30.400Z,1.33
2018-02-04T23:09:57.880Z,1.32
2018-02-04T23:12:25.408Z,1.30
2018-02-04T23:14:52.933Z,1.27
2018-02-04T23:17:20.412Z,1.17
2018-02-04T23:19:48.024Z,1.17
2018-02-04T23:22:16.315Z,1.03
2018-02-04T23:24:43.845Z,1.28
2018-02-04T23:27:11.339Z,1.29
2018-02-04T23:29:38.808Z,1.25
2018-02-04T23:32:06.343Z,1.24
2018-02-04T23:34:34.498Z,1.17
2018-02-04T23:37:01.994Z,1.18
2018-02-04T23:39:29.556Z,1.17
2018-02-04T23:41:57.057Z,1.25
2018-02-04T23:44:24.553Z,1.17
2018-02-04T23:46:52.031Z,1.10
2018-02-04T23:49:19.627Z,1.11
2018-02-04T23:51:48.817Z,1.24
2018-02-04T23:54:16.323Z,1.18
2018-02-04T23:56:43.840Z,1.21
2018-02-04T23:59:11.412Z,1.15
